createdAt,value
2022-10-17T00:03:13.797Z,4.20
2022-10-17T00:08:17.548Z,4.43
2022-10-17T00:13:19.315Z,4.43
2022-10-17T00:18:21.367Z,4.33
2022-10-17T00:23:23.128Z,8.83
2022-10-17T00:28:24.933Z,4.40
2022-10-17T00:33:30.492Z,5.43
2022-10-17T00:38:35.716Z,4.60
2022-10-17T00:43:56.899Z,11.23
2022-10-17T00:49:03.088Z,6.80
2022-10-17T00:54:05.425Z,5.50
2022-10-17T00:59:11.709Z,6.50
2022-10-17T01:04:13.398Z,6.10
2022-10-17T01:09:15.139Z,9.30
2022-10-17T01:14:25.336Z,7.90
2022-10-17T01:19:35.960Z,6.93
2022-10-17T01:25:02.292Z,6.70
2022-10-17T01:30:25.865Z,6.53
2022-10-17T01:35:48.311Z,6.83
2022-10-17T01:40:56.302Z,7.47
2022-10-17T01:46:11.584Z,9.20
2022-10-17T01:51:22.921Z,9.20
2022-10-17T01:56:26.446Z,7.40
2022-10-17T02:01:30.659Z,8.27
2022-10-17T02:06:36.230Z,8.67
2022-10-17T02:11:37.979Z,7.33
2022-10-17T02:16:47.520Z,9.67
2022-10-17T02:22:24.613Z,6.77
2022-10-17T02:27:43.862Z,10.53
2022-10-17T02:32:53.290Z,8.90
2022-10-17T02:37:55.648Z,8.40
2022-10-17T02:42:59.138Z,9.60
2022-10-17T02:48:06.601Z,9.23
2022-10-17T02:53:15.677Z,9.23
2022-10-17T02:58:21.860Z,10.53
2022-10-17T03:03:29.291Z,9.43
2022-10-17T03:08:31.083Z,9.30
2022-10-17T03:13:35.028Z,11.67
2022-10-17T03:18:39.324Z,9.67
2022-10-17T03:23:41.327Z,8.77
2022-10-17T03:28:44.407Z,9.50
2022-10-17T03:33:46.199Z,8.60
2022-10-17T03:38:48.291Z,9.77
2022-10-17T03:43:49.982Z,8.93
2022-10-17T03:48:51.667Z,7.07
2022-10-17T03:53:53.368Z,8.23
2022-10-17T03:58:55.899Z,9.50
2022-10-17T04:03:57.992Z,8.73
2022-10-17T04:08:59.952Z,12.80
2022-10-17T04:14:02.015Z,13.03
2022-10-17T04:19:04.356Z,9.20
2022-10-17T04:24:06.993Z,9.40
2022-10-17T04:29:09.221Z,9.90
2022-10-17T04:34:11.265Z,9.67
2022-10-17T04:44:15.092Z,23.10
2022-10-17T04:49:17.372Z,25.87
2022-10-17T04:54:21.873Z,17.73
2022-10-17T04:59:23.607Z,32.83
2022-10-17T05:04:25.721Z,28.30
2022-10-17T05:09:28.154Z,22.07
2022-10-17T05:14:35.655Z,18.17
2022-10-17T05:19:37.994Z,16.27
2022-10-17T05:24:39.756Z,11.27
2022-10-17T05:29:54.791Z,9.10
2022-10-17T05:34:56.591Z,12.07
2022-10-17T05:40:03.352Z,14.50
2022-10-17T05:45:06.374Z,13.67
2022-10-17T05:50:09.524Z,12.03
2022-10-17T05:55:11.524Z,9.93
2022-10-17T06:00:14.060Z,20.63
2022-10-17T06:05:16.508Z,22.57
2022-10-17T06:10:18.709Z,10.20
2022-10-17T06:15:20.370Z,9.20
2022-10-17T06:20:22.302Z,9.80
2022-10-17T06:25:24.217Z,8.97
2022-10-17T06:30:26.129Z,9.17
2022-10-17T06:35:27.952Z,9.23
2022-10-17T06:40:30.278Z,11.73
2022-10-17T06:45:31.981Z,9.13
2022-10-17T06:50:34.100Z,8.37
2022-10-17T06:55:35.811Z,8.13
2022-10-17T07:00:37.774Z,8.63
2022-10-17T07:05:39.584Z,10.33
2022-10-17T07:10:41.405Z,13.87
2022-10-17T07:15:43.725Z,10.93
2022-10-17T07:20:53.719Z,11.30
2022-10-17T07:26:06.881Z,9.83
2022-10-17T07:31:19.509Z,11.43
2022-10-17T07:36:21.575Z,11.23
2022-10-17T07:41:23.416Z,8.83
2022-10-17T07:46:25.253Z,10.77
2022-10-17T07:51:30.050Z,10.87
2022-10-17T07:56:35.985Z,11.60
2022-10-17T08:01:37.955Z,9.93
2022-10-17T08:06:39.660Z,10.20
2022-10-17T08:11:46.233Z,10.97
2022-10-17T08:16:48.067Z,9.90
2022-10-17T08:21:50.351Z,8.30
2022-10-17T08:26:53.376Z,9.63
2022-10-17T08:32:00.900Z,8.50
2022-10-17T08:37:04.157Z,8.33
2022-10-17T08:42:05.963Z,7.83
2022-10-17T08:47:12.791Z,7.93
2022-10-17T08:52:40.764Z,8.60
2022-10-17T08:57:43.278Z,6.93
2022-10-17T09:02:54.851Z,8.40
2022-10-17T09:08:29.248Z,8.07
2022-10-17T09:13:52.899Z,5.80
2022-10-17T09:19:02.061Z,4.67
2022-10-17T09:24:15.703Z,6.47
2022-10-17T09:29:24.607Z,5.27
2022-10-17T09:34:31.154Z,5.33
2022-10-17T09:39:33.138Z,6.23
2022-10-17T09:44:56.515Z,4.50
2022-10-17T09:49:58.413Z,5.53
2022-10-17T09:55:03.268Z,5.87
2022-10-17T10:00:09.449Z,5.03
2022-10-17T10:05:21.612Z,3.83
2022-10-17T10:10:27.863Z,3.97
2022-10-17T10:15:34.155Z,4.87
2022-10-17T10:20:37.969Z,4.80
2022-10-17T10:25:50.400Z,4.53
2022-10-17T10:30:52.852Z,3.50
2022-10-17T10:35:58.228Z,8.87
2022-10-17T10:41:08.295Z,5.97
2022-10-17T10:46:24.160Z,3.80
2022-10-17T10:51:47.335Z,4.03
2022-10-17T10:56:58.603Z,4.63
2022-10-17T11:02:15.804Z,6.13
2022-10-17T11:07:32.783Z,6.07
2022-10-17T11:12:39.237Z,7.30
2022-10-17T11:17:48.193Z,6.13
2022-10-17T11:22:54.191Z,8.63
2022-10-17T11:27:57.252Z,4.13
2022-10-17T11:33:02.302Z,4.50
2022-10-17T11:38:38.856Z,6.43
2022-10-17T11:44:01.670Z,6.23
2022-10-17T11:49:20.571Z,8.77
2022-10-17T11:54:32.054Z,5.67
2022-10-17T11:59:48.755Z,4.57
2022-10-17T12:05:02.522Z,7.87
2022-10-17T12:10:39.559Z,3.70
2022-10-17T12:15:45.908Z,5.93
2022-10-17T12:21:01.131Z,5.83
2022-10-17T12:26:06.944Z,5.53
2022-10-17T12:31:29.701Z,8.13
2022-10-17T12:36:35.409Z,7.10
2022-10-17T12:41:40.462Z,6.23
2022-10-17T12:46:44.945Z,5.73
2022-10-17T12:52:16.079Z,5.37
2022-10-17T12:57:37.713Z,5.57
2022-10-17T13:02:39.525Z,5.03
2022-10-17T13:07:42.986Z,3.77
2022-10-17T13:12:44.949Z,7.23
2022-10-17T13:17:56.602Z,5.13
2022-10-17T13:22:59.029Z,4.37
2022-10-17T13:28:07.398Z,3.90
2022-10-17T13:33:29.558Z,7.60
2022-10-17T13:38:32.859Z,7.27
2022-10-17T13:43:34.563Z,5.97
2022-10-17T13:48:37.858Z,10.70
2022-10-17T13:53:43.806Z,11.20
2022-10-17T13:58:51.208Z,10.23
2022-10-17T14:04:03.382Z,7.33
2022-10-17T14:09:27.643Z,4.97
2022-10-17T14:14:32.161Z,6.63
2022-10-17T14:19:39.419Z,7.97
2022-10-17T14:24:42.374Z,6.80
2022-10-17T14:29:55.797Z,5.30
2022-10-17T14:35:17.903Z,6.00
2022-10-17T14:40:26.625Z,5.50
2022-10-17T14:45:31.730Z,6.10
2022-10-17T14:50:36.165Z,11.30
2022-10-17T14:55:40.148Z,7.07
2022-10-17T15:00:41.804Z,6.63
2022-10-17T15:05:43.732Z,6.50
2022-10-17T15:10:46.993Z,4.67
2022-10-17T15:15:52.244Z,5.93
2022-10-17T15:21:04.577Z,4.27
2022-10-17T15:26:26.376Z,4.60
2022-10-17T15:31:29.276Z,6.77
2022-10-17T15:36:39.311Z,5.73
2022-10-17T15:41:41.062Z,10.13
2022-10-17T15:46:43.288Z,6.20
2022-10-17T15:51:54.339Z,6.13
2022-10-17T15:56:57.951Z,4.83
2022-10-17T16:01:59.658Z,8.30
2022-10-17T16:07:01.399Z,4.83
2022-10-17T16:12:05.031Z,5.93
2022-10-17T16:17:06.761Z,4.93
2022-10-17T16:22:17.262Z,8.27
2022-10-17T16:27:21.851Z,7.03
2022-10-17T16:32:23.532Z,9.70
2022-10-17T16:37:25.575Z,5.80
2022-10-17T16:42:30.679Z,9.17
2022-10-17T16:47:34.962Z,19.23
2022-10-17T16:52:43.681Z,9.77
2022-10-17T16:57:50.872Z,6.87
2022-10-17T17:03:30.476Z,7.00
2022-10-17T17:16:53.812Z,7.60
2022-10-17T17:21:41.868Z,8.23
2022-10-17T17:32:40.439Z,9.33
2022-10-17T18:10:13.184Z,10.40
2022-10-17T18:15:24.091Z,18.13
2022-10-17T18:20:25.953Z,9.30
2022-10-17T18:25:50.769Z,10.87
2022-10-17T18:30:52.413Z,9.30
2022-10-17T18:36:07.326Z,12.60
2022-10-17T18:41:11.695Z,11.83
2022-10-17T18:46:20.236Z,23.67
2022-10-17T18:51:26.213Z,20.97
2022-10-17T18:56:34.181Z,16.17
2022-10-17T19:01:36.194Z,13.90
2022-10-17T19:06:38.844Z,13.77
2022-10-17T19:11:41.992Z,13.33
2022-10-17T19:16:46.073Z,11.43
2022-10-17T19:21:48.197Z,13.37
2022-10-17T19:26:53.015Z,14.87
2022-10-17T19:36:57.559Z,14.47
2022-10-17T19:42:05.841Z,13.00
2022-10-17T19:47:08.850Z,12.23
2022-10-17T19:52:10.564Z,14.67
2022-10-17T19:57:12.309Z,11.57
2022-10-17T20:02:14.258Z,14.80
2022-10-17T20:07:15.953Z,11.40
2022-10-17T20:12:17.620Z,13.37
2022-10-17T20:17:19.301Z,13.00
2022-10-17T20:22:21.238Z,15.67
2022-10-17T20:27:27.447Z,13.73
2022-10-17T20:32:31.778Z,13.30
2022-10-17T20:37:38.546Z,27.00
2022-10-17T20:42:43.362Z,37.83
2022-10-17T20:47:49.174Z,20.17
2022-10-17T20:53:05.295Z,18.40
2022-10-17T20:58:14.994Z,16.87
2022-10-17T21:03:16.696Z,15.47
2022-10-17T21:08:18.580Z,20.33
2022-10-17T21:13:20.227Z,17.10
2022-10-17T21:18:21.866Z,18.57
2022-10-17T21:23:23.538Z,17.07
2022-10-17T21:28:25.247Z,15.50
2022-10-17T21:33:28.816Z,18.00
2022-10-17T21:38:30.789Z,16.57
2022-10-17T21:43:32.848Z,15.10
2022-10-17T21:48:34.714Z,20.20
2022-10-17T21:53:36.885Z,14.30
2022-10-17T21:58:38.971Z,19.17
2022-10-17T22:03:46.846Z,18.13
2022-10-17T22:08:49.651Z,21.33
2022-10-17T22:13:59.792Z,16.83
2022-10-17T22:19:06.051Z,17.63
2022-10-17T22:24:11.773Z,17.13
2022-10-17T22:29:13.937Z,19.83
2022-10-17T22:34:16.711Z,16.97
2022-10-17T22:39:18.886Z,19.40
2022-10-17T22:44:20.545Z,16.90
2022-10-17T22:49:22.214Z,16.83
2022-10-17T22:54:23.886Z,15.93
2022-10-17T22:59:25.710Z,16.00
2022-10-17T23:04:27.591Z,17.73
2022-10-17T23:09:29.290Z,15.90
2022-10-17T23:14:30.958Z,16.17
2022-10-17T23:19:33.981Z,15.97
2022-10-17T23:24:35.726Z,19.43
2022-10-17T23:29:37.437Z,17.70
2022-10-17T23:34:39.145Z,15.53
2022-10-17T23:39:40.826Z,17.70
2022-10-17T23:44:42.538Z,18.83
2022-10-17T23:49:44.276Z,19.10
2022-10-17T23:54:45.926Z,17.33
2022-10-17T23:59:47.583Z,15.73
